Time;durP1;ratioP1;P1;durP2;ratioP2;P2;SDS_P1;SDS_P2;PMS_P1;PMS_P2;Temp;Humidity;BMP_temperature;BMP_pressure;BME280_temperature;BME280_humidity;BME280_pressure;Samples;Min_cycle;Max_cycle;Signal;HPM_P1;HPM_P2
2022/12/23 00:00:39;;;;;;;53.40;22.13;;;5.30;99.90;;;;;;5027337;28;20606;-74
2022/12/23 00:03:04;;;;;;;55.92;22.25;;;5.30;99.90;;;;;;5030409;28;20045;-75
2022/12/23 00:05:30;;;;;;;52.55;22.65;;;5.30;99.90;;;;;;5027557;28;20025;-75
2022/12/23 00:07:55;;;;;;;55.08;24.40;;;5.30;99.90;;;;;;5030450;28;20355;-75
2022/12/23 00:10:21;;;;;;;56.13;22.02;;;5.30;99.90;;;;;;5030108;28;20076;-74
2022/12/23 00:15:31;;;;;;;47.83;21.80;;;5.30;99.90;;;;;;5024956;28;20067;-74
2022/12/23 00:17:56;;;;;;;52.92;21.58;;;5.30;99.90;;;;;;5030652;28;20025;-75
2022/12/23 00:20:22;;;;;;;58.55;22.85;;;5.20;99.90;;;;;;5028060;28;20038;-74
2022/12/23 00:23:06;;;;;;;60.15;23.95;;;5.20;99.90;;;;;;5029212;28;20405;-74
2022/12/23 00:25:39;;;;;;;52.00;20.92;;;5.20;99.90;;;;;;5025141;28;20033;-74
2022/12/23 00:28:12;;;;;;;49.13;22.13;;;5.20;99.90;;;;;;5023109;28;20033;-74
2022/12/23 00:30:44;;;;;;;58.97;23.25;;;5.20;99.90;;;;;;5027321;28;20022;-74
2022/12/23 00:33:10;;;;;;;49.75;21.65;;;5.20;99.90;;;;;;5026034;28;20021;-76
2022/12/23 00:35:35;;;;;;;51.42;22.38;;;5.20;99.90;;;;;;5026578;28;20413;-75
2022/12/23 00:38:01;;;;;;;50.85;22.80;;;5.20;99.90;;;;;;5027340;28;20041;-75
2022/12/23 00:43:10;;;;;;;51.63;22.42;;;5.20;99.90;;;;;;5023787;28;20120;-75
2022/12/23 00:45:36;;;;;;;53.45;23.60;;;5.20;99.90;;;;;;5027955;28;20120;-75
2022/12/23 00:50:51;;;;;;;59.45;24.15;;;5.20;99.90;;;;;;5021156;28;20028;-75
2022/12/23 00:53:16;;;;;;;52.80;24.05;;;5.20;99.90;;;;;;5023989;28;20029;-75
2022/12/23 00:55:45;;;;;;;62.53;23.17;;;5.20;99.90;;;;;;5028929;28;20128;-74
2022/12/23 00:58:10;;;;;;;56.78;23.98;;;5.20;99.90;;;;;;5031003;28;20030;-75
2022/12/23 01:06:04;;;;;;;61.33;23.60;;;5.30;99.90;;;;;;5027603;28;20040;-75
2022/12/23 01:08:30;;;;;;;54.78;24.45;;;5.30;99.90;;;;;;5026819;28;20033;-74
2022/12/23 01:10:55;;;;;;;59.55;22.50;;;5.30;99.90;;;;;;5028698;28;20029;-74
2022/12/23 01:13:21;;;;;;;64.60;25.55;;;5.30;99.90;;;;;;5029849;28;20064;-75
2022/12/23 01:15:46;;;;;;;58.50;24.73;;;5.30;99.90;;;;;;5029824;28;20040;-74
2022/12/23 01:18:12;;;;;;;59.80;24.50;;;5.30;99.90;;;;;;5028219;28;20675;-75
2022/12/23 01:20:39;;;;;;;59.92;24.17;;;5.30;99.90;;;;;;5030170;28;20038;-75
2022/12/23 01:23:04;;;;;;;61.10;23.30;;;5.30;99.90;;;;;;5029493;28;20099;-75
2022/12/23 01:25:31;;;;;;;59.47;22.73;;;5.40;99.90;;;;;;5028137;28;20033;-74
2022/12/23 01:27:56;;;;;;;58.83;23.60;;;5.40;99.90;;;;;;5028196;28;20100;-75
2022/12/23 01:30:22;;;;;;;62.60;23.95;;;5.40;99.90;;;;;;5026694;28;20473;-75
2022/12/23 01:32:48;;;;;;;57.80;24.00;;;5.40;99.90;;;;;;5031738;28;20481;-74
2022/12/23 01:35:13;;;;;;;59.58;23.75;;;5.40;99.90;;;;;;5017931;28;20033;-75
2022/12/23 01:37:39;;;;;;;62.58;24.23;;;5.40;99.90;;;;;;5030508;28;20040;-75
2022/12/23 01:40:05;;;;;;;68.38;24.65;;;5.40;99.90;;;;;;5026658;28;20037;-74
2022/12/23 01:42:44;;;;;;;65.93;24.60;;;5.40;99.90;;;;;;5031999;28;20044;-74
2022/12/23 01:45:22;;;;;;;69.78;26.42;;;5.40;99.90;;;;;;5030905;28;20036;-74
2022/12/23 01:47:49;;;;;;;64.05;24.20;;;5.40;99.90;;;;;;5029611;28;20120;-74
2022/12/23 01:50:31;;;;;;;62.15;23.63;;;5.30;99.90;;;;;;5024573;28;20030;-77
2022/12/23 01:53:24;;;;;;;61.08;22.95;;;5.40;99.90;;;;;;5019672;28;20061;-74
2022/12/23 01:55:58;;;;;;;72.30;24.55;;;5.30;99.90;;;;;;5029213;28;20041;-74
2022/12/23 01:58:34;;;;;;;68.57;25.30;;;5.40;99.90;;;;;;5028504;28;20040;-74
2022/12/23 02:03:46;;;;;;;64.95;24.30;;;5.30;99.90;;;;;;5025343;28;20088;-76
2022/12/23 02:09:19;;;;;;;75.47;23.67;;;5.40;99.90;;;;;;5025591;28;20449;-74
2022/12/23 02:12:12;;;;;;;67.38;25.52;;;5.40;99.90;;;;;;5020951;28;20406;-74
2022/12/23 02:18:25;;;;;;;77.38;24.63;;;5.40;99.90;;;;;;5023429;28;20057;-75
2022/12/23 02:21:28;;;;;;;83.18;22.70;;;5.40;99.90;;;;;;5026562;28;20040;-74
2022/12/23 02:24:42;;;;;;;65.43;23.90;;;5.40;99.90;;;;;;5029261;28;20442;-74
2022/12/23 02:27:32;;;;;;;65.63;23.17;;;5.30;99.90;;;;;;5015545;28;20518;-74
2022/12/23 02:30:23;;;;;;;75.40;24.40;;;5.30;99.90;;;;;;5027509;28;20037;-74
2022/12/23 02:33:19;;;;;;;71.07;23.48;;;5.30;99.90;;;;;;5023823;28;20033;-75
2022/12/23 02:36:27;;;;;;;71.82;22.92;;;5.30;99.90;;;;;;5024981;28;20025;-74
2022/12/23 02:38:58;;;;;;;68.57;22.88;;;5.30;99.90;;;;;;5022296;28;20050;-75
2022/12/23 02:41:45;;;;;;;72.20;24.30;;;5.30;99.90;;;;;;5030015;28;20021;-75
2022/12/23 02:44:19;;;;;;;70.13;24.63;;;5.30;99.90;;;;;;5028284;28;20037;-75
2022/12/23 02:46:51;;;;;;;65.47;23.75;;;5.30;99.90;;;;;;5028871;28;20120;-75
2022/12/23 02:49:27;;;;;;;77.70;23.30;;;5.30;99.90;;;;;;5028217;28;20037;-74
2022/12/23 02:51:56;;;;;;;75.32;23.67;;;5.30;99.90;;;;;;5023946;28;20098;-75
2022/12/23 02:54:28;;;;;;;79.95;24.73;;;5.40;99.90;;;;;;5027072;28;20029;-74
2022/12/23 02:56:57;;;;;;;69.63;24.25;;;5.30;99.90;;;;;;5031136;28;20049;-74
2022/12/23 02:59:26;;;;;;;74.05;24.45;;;5.40;99.90;;;;;;5024430;28;20043;-75
2022/12/23 03:01:53;;;;;;;64.65;22.75;;;5.30;99.90;;;;;;5031160;28;20083;-74
2022/12/23 03:04:19;;;;;;;65.90;23.67;;;5.40;99.90;;;;;;5027823;28;20041;-74
2022/12/23 03:06:50;;;;;;;75.13;23.92;;;5.40;99.90;;;;;;5023692;28;20048;-75
2022/12/23 03:09:38;;;;;;;76.38;25.15;;;5.40;99.90;;;;;;5023300;28;20073;-74
2022/12/23 03:12:18;;;;;;;75.70;24.30;;;5.40;99.90;;;;;;5023575;28;20037;-75
2022/12/23 03:14:58;;;;;;;69.50;24.73;;;5.40;99.90;;;;;;5030966;28;20037;-75
2022/12/23 03:17:34;;;;;;;81.63;25.98;;;5.40;99.90;;;;;;5031620;28;20465;-75
2022/12/23 03:20:32;;;;;;;77.93;25.30;;;5.40;99.90;;;;;;5030170;28;20025;-74
2022/12/23 03:23:14;;;;;;;78.05;24.58;;;5.50;99.90;;;;;;5027294;28;20050;-74
2022/12/23 03:26:03;;;;;;;78.60;24.27;;;5.50;99.90;;;;;;5025828;28;20398;-74
2022/12/23 03:28:57;;;;;;;76.75;23.33;;;5.40;99.90;;;;;;5027546;28;20029;-77
2022/12/23 03:31:27;;;;;;;76.25;24.48;;;5.40;99.90;;;;;;5022177;28;20055;-74
2022/12/23 03:33:59;;;;;;;88.90;25.67;;;5.40;99.90;;;;;;5019295;28;20050;-76
2022/12/23 03:36:32;;;;;;;83.72;24.50;;;5.40;99.90;;;;;;5024502;28;20034;-74
2022/12/23 03:39:00;;;;;;;78.57;25.25;;;5.40;99.90;;;;;;5027497;28;20386;-77
2022/12/23 03:41:34;;;;;;;87.32;24.60;;;5.40;99.90;;;;;;5029287;28;20033;-75
2022/12/23 03:44:06;;;;;;;67.15;22.77;;;5.40;99.90;;;;;;5029441;28;20045;-76
2022/12/23 03:46:41;;;;;;;84.07;25.05;;;5.40;99.90;;;;;;5027608;28;20028;-74
2022/12/23 03:49:12;;;;;;;76.32;22.90;;;5.40;99.90;;;;;;5026591;28;20044;-74
2022/12/23 03:51:47;;;;;;;87.60;24.10;;;5.40;99.90;;;;;;5024670;28;20160;-74
2022/12/23 03:54:22;;;;;;;74.30;24.55;;;5.40;99.90;;;;;;5025988;28;20021;-75
2022/12/23 03:56:55;;;;;;;81.32;24.98;;;5.40;99.90;;;;;;5027205;28;20514;-76
2022/12/23 03:59:25;;;;;;;89.10;22.75;;;5.40;99.90;;;;;;5028148;28;20418;-74
2022/12/23 04:02:24;;;;;;;81.20;23.70;;;5.40;99.90;;;;;;5024625;28;20128;-75
2022/12/23 04:05:01;;;;;;;76.22;24.45;;;5.40;99.90;;;;;;5020801;28;20442;-74
2022/12/23 04:07:31;;;;;;;85.45;24.25;;;5.40;99.90;;;;;;5024721;28;20381;-77
2022/12/23 04:09:57;;;;;;;86.97;25.30;;;5.40;99.90;;;;;;5028653;28;20474;-75
2022/12/23 04:12:26;;;;;;;89.15;26.63;;;5.40;99.90;;;;;;5027840;28;20117;-75
2022/12/23 04:14:52;;;;;;;99.93;26.60;;;5.40;99.90;;;;;;5029690;28;20043;-74
2022/12/23 04:17:18;;;;;;;83.85;25.85;;;5.30;99.90;;;;;;5033360;28;20108;-74
2022/12/23 04:19:44;;;;;;;85.15;26.30;;;5.40;99.90;;;;;;5023323;28;20470;-75
2022/12/23 04:22:11;;;;;;;93.65;27.00;;;5.40;99.90;;;;;;5033177;28;20064;-75
2022/12/23 04:24:37;;;;;;;93.55;26.23;;;5.40;99.90;;;;;;5032922;28;20038;-75
2022/12/23 04:27:03;;;;;;;90.15;27.42;;;5.40;99.90;;;;;;5034848;28;20113;-74
2022/12/23 04:29:28;;;;;;;90.82;27.55;;;5.40;99.90;;;;;;5032529;28;20133;-75
2022/12/23 04:31:54;;;;;;;93.78;27.15;;;5.40;99.90;;;;;;5031525;28;20466;-74
2022/12/23 04:34:19;;;;;;;99.25;27.90;;;5.40;99.90;;;;;;5027534;28;20038;-74
2022/12/23 04:36:45;;;;;;;99.75;26.80;;;5.40;99.90;;;;;;5023235;28;20416;-74
2022/12/23 04:39:10;;;;;;;112.32;26.52;;;5.40;99.90;;;;;;5026551;28;20041;-74
2022/12/23 04:41:36;;;;;;;90.88;26.98;;;5.30;99.90;;;;;;5033643;28;20034;-77
2022/12/23 04:44:01;;;;;;;94.60;25.95;;;5.30;99.90;;;;;;5031807;28;20489;-75
2022/12/23 04:46:26;;;;;;;102.63;27.70;;;5.40;99.90;;;;;;5029834;28;20036;-74
2022/12/23 04:48:52;;;;;;;90.55;25.20;;;5.40;99.90;;;;;;5028494;28;20051;-74
2022/12/23 04:51:17;;;;;;;92.00;26.08;;;5.40;99.90;;;;;;5026643;28;20382;-74
2022/12/23 04:53:43;;;;;;;98.72;25.80;;;5.40;99.90;;;;;;5034044;28;20077;-74
2022/12/23 04:56:08;;;;;;;100.65;26.05;;;5.40;99.90;;;;;;5030429;28;20060;-75
2022/12/23 04:58:34;;;;;;;104.55;25.30;;;5.40;99.90;;;;;;5030787;28;20044;-75
2022/12/23 05:01:05;;;;;;;78.95;24.63;;;5.50;99.90;;;;;;5025214;28;20493;-74
2022/12/23 05:03:31;;;;;;;102.55;25.55;;;5.50;99.90;;;;;;5029059;28;20026;-75
2022/12/23 05:05:56;;;;;;;116.47;25.48;;;5.40;99.90;;;;;;5030410;28;20041;-74
2022/12/23 05:08:22;;;;;;;90.97;24.58;;;5.40;99.90;;;;;;5026550;28;20052;-76
2022/12/23 05:10:47;;;;;;;105.07;25.70;;;5.40;99.90;;;;;;5033740;28;20109;-74
2022/12/23 05:13:13;;;;;;;117.53;25.02;;;5.40;99.90;;;;;;5031341;28;20037;-74
2022/12/23 05:15:38;;;;;;;112.60;26.77;;;5.40;99.90;;;;;;5031075;28;20037;-74
2022/12/23 05:18:04;;;;;;;129.73;27.92;;;5.40;99.90;;;;;;5027471;28;20034;-74
2022/12/23 05:20:29;;;;;;;140.43;26.75;;;5.40;99.90;;;;;;5030252;28;20072;-74
2022/12/23 05:22:55;;;;;;;133.95;25.40;;;5.40;99.90;;;;;;5022949;28;20510;-76
2022/12/23 05:25:20;;;;;;;112.20;26.83;;;5.40;99.90;;;;;;5027818;28;20041;-74
2022/12/23 05:27:46;;;;;;;219.95;29.02;;;5.40;99.90;;;;;;5023321;28;20029;-75
2022/12/23 05:30:11;;;;;;;201.65;29.45;;;5.40;99.90;;;;;;5028225;28;20487;-71
2022/12/23 05:32:38;;;;;;;242.55;28.30;;;5.40;99.90;;;;;;5026716;28;20041;-71
2022/12/23 05:35:04;;;;;;;279.33;30.85;;;5.30;99.90;;;;;;5026220;28;20106;-72
2022/12/23 05:37:29;;;;;;;273.52;28.85;;;5.30;99.90;;;;;;5030001;28;20042;-71
2022/12/23 05:39:55;;;;;;;219.48;29.80;;;5.30;99.90;;;;;;5029166;28;20037;-72
2022/12/23 05:42:20;;;;;;;330.65;33.33;;;5.30;99.90;;;;;;5030939;28;20454;-71
2022/12/23 05:44:46;;;;;;;190.70;29.65;;;5.30;99.90;;;;;;5028404;28;20045;-71
2022/12/23 05:47:12;;;;;;;192.68;28.45;;;5.30;99.90;;;;;;5030120;28;20094;-71
2022/12/23 05:49:37;;;;;;;296.30;32.00;;;5.30;99.90;;;;;;5027202;28;20536;-72
2022/12/23 05:52:03;;;;;;;252.52;30.83;;;5.30;99.90;;;;;;5028158;28;20036;-71
2022/12/23 05:54:28;;;;;;;197.15;27.33;;;5.30;99.90;;;;;;5029037;28;20090;-71
2022/12/23 05:56:54;;;;;;;206.73;28.13;;;5.40;99.90;;;;;;5021374;28;20044;-71
2022/12/23 05:59:19;;;;;;;157.88;26.90;;;5.40;99.90;;;;;;5023785;28;20036;-71
2022/12/23 06:01:45;;;;;;;133.93;26.88;;;5.40;99.90;;;;;;5022979;28;20414;-72
2022/12/23 06:04:10;;;;;;;203.95;27.67;;;5.40;99.90;;;;;;5024556;28;20049;-72
2022/12/23 06:06:37;;;;;;;154.13;28.23;;;5.40;99.90;;;;;;5028366;28;20037;-71
2022/12/23 06:09:02;;;;;;;215.23;28.38;;;5.40;99.90;;;;;;5026021;28;20095;-71
2022/12/23 06:11:28;;;;;;;241.52;30.00;;;5.40;99.90;;;;;;5022915;28;20037;-72
2022/12/23 06:13:53;;;;;;;322.92;30.67;;;5.40;99.90;;;;;;5028119;28;20088;-72
2022/12/23 06:16:19;;;;;;;284.05;28.23;;;5.40;99.90;;;;;;5021885;28;20034;-71
2022/12/23 06:18:44;;;;;;;347.70;31.05;;;5.40;99.90;;;;;;5027590;28;20033;-71
2022/12/23 06:21:10;;;;;;;276.25;27.65;;;5.40;99.90;;;;;;5026008;28;20053;-71
2022/12/23 06:23:35;;;;;;;335.58;29.35;;;5.40;99.90;;;;;;5024340;28;20029;-71
2022/12/23 06:26:02;;;;;;;406.90;32.92;;;5.40;99.90;;;;;;5016822;28;20092;-71
2022/12/23 06:28:28;;;;;;;261.90;29.25;;;5.30;99.90;;;;;;5021664;28;20033;-70
2022/12/23 06:30:55;;;;;;;363.45;32.47;;;5.30;99.90;;;;;;5027927;28;20037;-70
2022/12/23 06:33:21;;;;;;;395.25;33.50;;;5.30;99.90;;;;;;5029936;28;20033;-70
2022/12/23 06:35:47;;;;;;;376.33;31.45;;;5.30;99.90;;;;;;5024784;28;20044;-70
2022/12/23 06:38:12;;;;;;;325.13;29.95;;;5.30;99.90;;;;;;5021115;28;20029;-71
2022/12/23 06:40:38;;;;;;;327.83;30.65;;;5.30;99.90;;;;;;5021970;28;20068;-71
2022/12/23 06:43:03;;;;;;;318.83;29.77;;;5.30;99.90;;;;;;5023713;28;22259;-71
2022/12/23 06:45:29;;;;;;;343.35;31.35;;;5.30;99.90;;;;;;5027780;28;20124;-70
2022/12/23 06:47:54;;;;;;;328.10;29.40;;;5.30;99.90;;;;;;5025576;28;21315;-70
2022/12/23 06:50:20;;;;;;;274.25;29.08;;;5.30;99.90;;;;;;5021082;28;20030;-72
2022/12/23 06:52:45;;;;;;;262.08;27.67;;;5.30;99.90;;;;;;5022877;28;20026;-71
2022/12/23 06:55:11;;;;;;;276.02;28.17;;;5.20;99.90;;;;;;5024184;28;20037;-71
2022/12/23 06:57:36;;;;;;;255.15;26.15;;;5.20;99.90;;;;;;5031134;28;20068;-71
2022/12/23 07:00:04;;;;;;;278.80;25.65;;;5.20;99.90;;;;;;5030362;28;20033;-72
2022/12/23 07:02:29;;;;;;;284.92;25.45;;;5.20;99.90;;;;;;5029583;28;20044;-71
2022/12/23 07:04:55;;;;;;;304.92;26.65;;;5.20;99.90;;;;;;5023667;28;20037;-71
2022/12/23 07:07:20;;;;;;;318.73;26.45;;;5.20;99.90;;;;;;5025834;28;20030;-71
2022/12/23 07:09:46;;;;;;;258.92;25.52;;;5.10;99.90;;;;;;5031142;28;20450;-71
2022/12/23 07:12:11;;;;;;;333.88;26.50;;;5.10;99.90;;;;;;5028483;28;20038;-71
2022/12/23 07:14:37;;;;;;;347.48;26.30;;;5.10;99.90;;;;;;5027835;28;20108;-72
2022/12/23 07:17:02;;;;;;;257.92;24.23;;;5.10;99.90;;;;;;5018410;28;20037;-71
2022/12/23 07:19:28;;;;;;;292.95;26.52;;;5.10;99.90;;;;;;5028338;28;20037;-72
2022/12/23 07:21:53;;;;;;;319.60;27.27;;;5.10;99.90;;;;;;5030268;28;20057;-71
2022/12/23 07:24:18;;;;;;;247.52;24.10;;;5.00;99.90;;;;;;5015248;28;20046;-71
2022/12/23 07:26:44;;;;;;;273.67;25.10;;;5.00;99.90;;;;;;5029762;28;20038;-71
2022/12/23 07:29:09;;;;;;;314.27;27.60;;;5.00;99.90;;;;;;5030852;28;20037;-72
2022/12/23 07:31:35;;;;;;;222.88;23.95;;;5.00;99.90;;;;;;5028575;28;20367;-71
2022/12/23 07:34:01;;;;;;;226.18;22.27;;;5.00;99.90;;;;;;5024243;28;20034;-72
2022/12/23 07:36:26;;;;;;;237.18;22.85;;;5.00;99.90;;;;;;5027343;28;20485;-71
2022/12/23 07:38:51;;;;;;;259.38;23.45;;;5.00;99.90;;;;;;5026428;28;20037;-71
2022/12/23 07:41:17;;;;;;;334.95;24.77;;;5.00;99.90;;;;;;5031379;28;20428;-71
2022/12/23 07:43:43;;;;;;;251.98;23.77;;;5.00;99.90;;;;;;5028590;28;20108;-71
2022/12/23 07:46:09;;;;;;;205.63;21.98;;;5.00;99.90;;;;;;5029502;28;20148;-71
2022/12/23 07:48:34;;;;;;;184.30;19.73;;;5.00;99.90;;;;;;5025424;28;20029;-71
2022/12/23 07:51:01;;;;;;;189.75;21.20;;;4.90;99.90;;;;;;5028028;28;20458;-71
2022/12/23 07:53:27;;;;;;;274.88;23.50;;;4.90;99.90;;;;;;5025890;28;20029;-72
2022/12/23 07:55:52;;;;;;;234.40;22.98;;;4.90;99.90;;;;;;5034693;28;20476;-71
2022/12/23 07:58:18;;;;;;;213.00;21.13;;;4.90;99.90;;;;;;5032071;28;20046;-72
2022/12/23 08:00:44;;;;;;;244.63;20.83;;;4.80;99.90;;;;;;5034418;28;20025;-71
2022/12/23 08:03:12;;;;;;;227.25;21.83;;;4.80;99.90;;;;;;5029878;28;20033;-71
2022/12/23 08:05:37;;;;;;;244.00;22.10;;;4.80;99.90;;;;;;5029825;28;20052;-71
2022/12/23 08:08:03;;;;;;;210.77;20.15;;;4.80;99.90;;;;;;5022546;28;20033;-71
2022/12/23 08:10:29;;;;;;;175.48;20.40;;;4.80;99.90;;;;;;5026826;28;20492;-71
2022/12/23 08:12:54;;;;;;;178.02;19.73;;;4.80;99.90;;;;;;5025269;28;20592;-71
2022/12/23 08:15:20;;;;;;;177.48;19.60;;;4.80;99.90;;;;;;5031751;28;20083;-71
2022/12/23 08:17:46;;;;;;;206.48;19.92;;;4.80;99.90;;;;;;5028668;28;20501;-72
2022/12/23 08:20:11;;;;;;;145.88;18.95;;;4.70;99.90;;;;;;5023224;28;20033;-71
2022/12/23 08:22:37;;;;;;;174.20;17.77;;;4.70;99.90;;;;;;5020853;28;20124;-70
2022/12/23 08:25:03;;;;;;;166.13;20.25;;;4.70;99.90;;;;;;5027686;28;20145;-70
2022/12/23 08:27:28;;;;;;;136.65;18.08;;;4.70;99.90;;;;;;5031514;28;20048;-70
2022/12/23 08:29:54;;;;;;;188.13;18.42;;;4.80;99.90;;;;;;5032578;28;20029;-70
2022/12/23 08:32:20;;;;;;;160.02;17.98;;;4.80;99.90;;;;;;5026913;28;20381;-70
2022/12/23 08:34:45;;;;;;;177.82;19.77;;;4.80;99.90;;;;;;5027065;28;20121;-70
2022/12/23 08:37:11;;;;;;;209.68;21.60;;;4.80;99.90;;;;;;5028379;28;20048;-71
2022/12/23 08:39:36;;;;;;;176.00;19.42;;;4.70;99.90;;;;;;5032064;28;20064;-70
2022/12/23 08:42:02;;;;;;;200.23;21.02;;;4.80;99.90;;;;;;5031947;28;20036;-71
2022/12/23 08:44:28;;;;;;;173.45;19.80;;;4.80;99.90;;;;;;5030483;28;20473;-70
2022/12/23 08:46:54;;;;;;;163.40;18.40;;;4.80;99.90;;;;;;5033057;28;20405;-71
2022/12/23 08:49:20;;;;;;;181.45;19.48;;;4.80;99.90;;;;;;5031520;28;20056;-70
2022/12/23 08:51:45;;;;;;;168.55;18.45;;;4.90;99.90;;;;;;5028558;28;20634;-70
2022/12/23 08:54:11;;;;;;;214.93;19.85;;;4.90;99.90;;;;;;5029994;28;20083;-70
2022/12/23 08:56:39;;;;;;;144.65;18.45;;;4.90;99.90;;;;;;5032485;28;20034;-71
2022/12/23 08:59:06;;;;;;;196.93;19.70;;;4.90;99.90;;;;;;5029063;28;20056;-71
2022/12/23 09:01:32;;;;;;;201.85;19.30;;;4.90;99.90;;;;;;5030147;28;20021;-70
2022/12/23 09:04:02;;;;;;;162.52;17.67;;;4.90;99.90;;;;;;5021650;28;20100;-71
2022/12/23 09:06:32;;;;;;;166.05;18.63;;;5.00;99.90;;;;;;5025947;28;20030;-71
2022/12/23 09:08:58;;;;;;;142.98;17.38;;;5.00;99.90;;;;;;5024927;28;20091;-70
2022/12/23 09:11:26;;;;;;;137.57;16.90;;;5.00;99.90;;;;;;5024566;28;20041;-71
2022/12/23 09:13:52;;;;;;;120.88;15.95;;;5.00;99.90;;;;;;5028744;28;20030;-70
2022/12/23 09:16:18;;;;;;;134.93;17.42;;;5.00;99.90;;;;;;5028929;28;20080;-72
2022/12/23 09:18:43;;;;;;;153.18;17.33;;;5.10;99.90;;;;;;5031507;28;20041;-76
2022/12/23 09:21:12;;;;;;;115.60;17.02;;;5.10;99.90;;;;;;5027923;28;20076;-70
2022/12/23 09:23:38;;;;;;;123.80;15.50;;;5.10;99.90;;;;;;5023367;28;20029;-70
2022/12/23 09:26:05;;;;;;;100.10;16.20;;;5.10;99.90;;;;;;5031104;28;20064;-71
2022/12/23 09:28:30;;;;;;;84.15;15.93;;;5.10;99.90;;;;;;5032272;28;20065;-71
2022/12/23 09:30:56;;;;;;;84.45;15.52;;;5.10;99.90;;;;;;5025698;28;20057;-71
2022/12/23 09:33:21;;;;;;;93.15;15.98;;;5.20;99.90;;;;;;5030193;28;20037;-71
2022/12/23 09:35:47;;;;;;;70.85;15.57;;;5.20;99.90;;;;;;5019493;28;20401;-71
2022/12/23 09:38:12;;;;;;;96.82;15.85;;;5.10;99.90;;;;;;5021873;28;20033;-71
2022/12/23 09:40:40;;;;;;;55.63;15.05;;;5.20;99.90;;;;;;5028537;28;20060;-70
2022/12/23 09:43:28;;;;;;;68.25;15.52;;;5.30;99.90;;;;;;5032856;28;20037;-67
2022/12/23 09:46:15;;;;;;;67.85;16.02;;;5.40;99.90;;;;;;5022137;28;20091;-69
2022/12/23 09:48:51;;;;;;;51.90;15.57;;;5.40;99.90;;;;;;5030335;28;20099;-77
2022/12/23 09:51:20;;;;;;;49.25;15.02;;;5.50;99.90;;;;;;5028571;28;20038;-67
2022/12/23 09:54:14;;;;;;;50.95;16.02;;;5.50;99.90;;;;;;5028670;28;20091;-67
2022/12/23 09:57:00;;;;;;;44.17;14.63;;;5.60;99.90;;;;;;5026868;28;20420;-67
2022/12/23 10:00:10;;;;;;;42.33;14.43;;;5.60;99.90;;;;;;5027242;28;20441;-68
2022/12/23 10:02:46;;;;;;;49.60;15.30;;;5.60;99.90;;;;;;5031273;28;20045;-70
2022/12/23 10:05:19;;;;;;;41.05;13.60;;;5.60;99.90;;;;;;5022123;28;20481;-68
2022/12/23 10:08:00;;;;;;;36.20;14.32;;;5.60;99.90;;;;;;5029435;28;20029;-68
2022/12/23 10:10:39;;;;;;;38.55;14.57;;;5.60;99.90;;;;;;5021383;28;20037;-68
2022/12/23 10:13:10;;;;;;;37.25;13.80;;;5.60;99.90;;;;;;5024236;28;20473;-68
2022/12/23 10:15:56;;;;;;;;;;;5.70;99.90;;;;;;5032031;28;20037;-68
2022/12/23 10:18:24;;;;;;;40.65;13.48;;;5.70;99.90;;;;;;5026822;28;19959;-70
2022/12/23 10:20:56;;;;;;;36.30;13.95;;;5.70;99.90;;;;;;5029038;28;20025;-68
2022/12/23 10:23:36;;;;;;;41.53;14.63;;;5.70;99.90;;;;;;5026157;28;20304;-70
2022/12/23 10:26:13;;;;;;;40.97;15.27;;;5.80;99.90;;;;;;5030198;28;20041;-68
2022/12/23 10:28:38;;;;;;;40.90;15.65;;;5.90;99.90;;;;;;5030490;28;20033;-69
2022/12/23 10:31:15;;;;;;;49.75;15.65;;;5.90;99.90;;;;;;5026183;28;20035;-68
2022/12/23 10:33:55;;;;;;;38.80;14.13;;;5.90;99.90;;;;;;5020850;28;20390;-67
2022/12/23 10:36:58;;;;;;;40.38;14.95;;;6.10;99.90;;;;;;5024154;28;20042;-69
2022/12/23 10:39:59;;;;;;;42.00;15.70;;;6.10;99.90;;;;;;5026955;28;20114;-69
2022/12/23 10:42:43;;;;;;;;;;;6.10;99.90;;;;;;5015246;28;20053;-70
2022/12/23 10:45:12;;;;;;;39.90;14.25;;;6.00;99.90;;;;;;5028800;28;20284;-71
2022/12/23 10:48:13;;;;;;;46.10;15.70;;;6.10;99.90;;;;;;5034833;28;20044;-70
2022/12/23 10:51:08;;;;;;;33.45;14.40;;;6.00;99.90;;;;;;5019994;28;20028;-70
2022/12/23 10:53:47;;;;;;;42.53;15.93;;;6.00;99.90;;;;;;5022116;28;20036;-70
2022/12/23 10:56:13;;;;;;;43.35;15.75;;;6.10;99.90;;;;;;5031106;28;20035;-69
2022/12/23 10:58:45;;;;;;;41.40;15.98;;;6.10;99.90;;;;;;5031128;28;20030;-68
2022/12/23 11:01:14;;;;;;;32.30;14.57;;;6.10;99.90;;;;;;5024670;28;20060;-70
2022/12/23 11:03:58;;;;;;;37.25;15.85;;;6.10;99.90;;;;;;5014409;28;20060;-68
2022/12/23 11:06:24;;;;;;;36.78;15.20;;;6.30;99.90;;;;;;5026533;28;20106;-69
2022/12/23 11:08:51;;;;;;;34.67;14.20;;;6.40;99.90;;;;;;5026662;28;20025;-69
2022/12/23 11:11:16;;;;;;;29.90;13.93;;;6.30;99.90;;;;;;5023770;28;20068;-69
2022/12/23 11:13:45;;;;;;;31.70;14.60;;;6.20;99.90;;;;;;5028772;28;20111;-68
2022/12/23 11:16:27;;;;;;;30.73;14.52;;;6.20;99.90;;;;;;5029032;28;20033;-72
2022/12/23 11:19:00;;;;;;;30.88;13.73;;;6.30;99.90;;;;;;5025649;28;20386;-71
2022/12/23 11:21:27;;;;;;;31.77;14.27;;;6.30;99.90;;;;;;5024857;28;22106;-68
2022/12/23 11:24:08;;;;;;;34.95;14.73;;;6.50;99.90;;;;;;5029448;28;20077;-71
2022/12/23 11:26:34;;;;;;;35.92;15.88;;;6.40;99.90;;;;;;5014112;28;20061;-73
2022/12/23 11:29:10;;;;;;;33.95;17.13;;;6.40;99.90;;;;;;5017323;28;20100;-73
2022/12/23 11:31:36;;;;;;;33.67;15.52;;;6.50;99.90;;;;;;5028013;28;20061;-73
2022/12/23 11:34:12;;;;;;;36.78;17.30;;;6.50;99.90;;;;;;5024944;28;20077;-76
2022/12/23 11:36:38;;;;;;;37.00;15.23;;;6.50;99.90;;;;;;5012776;28;20033;-73
2022/12/23 11:39:08;;;;;;;36.53;15.00;;;6.50;99.90;;;;;;5019417;28;20025;-74
2022/12/23 11:41:38;;;;;;;31.73;14.73;;;6.50;99.90;;;;;;5026940;28;20120;-73
2022/12/23 11:44:14;;;;;;;32.53;15.10;;;6.50;99.90;;;;;;5015869;28;20037;-74
2022/12/23 11:46:39;;;;;;;28.35;15.65;;;6.50;99.90;;;;;;5018322;28;20038;-75
2022/12/23 11:49:20;;;;;;;29.92;15.07;;;6.50;99.90;;;;;;5015057;28;20036;-74
2022/12/23 11:51:59;;;;;;;31.27;13.43;;;6.40;99.90;;;;;;5035559;28;20029;-74
2022/12/23 11:54:25;;;;;;;25.35;13.18;;;6.40;99.90;;;;;;5015378;28;20034;-74
2022/12/23 11:56:53;;;;;;;31.02;14.15;;;6.50;99.90;;;;;;5013849;28;20029;-74
2022/12/23 11:59:32;;;;;;;28.33;12.98;;;6.50;99.90;;;;;;5015886;28;20115;-74
2022/12/23 12:02:04;;;;;;;27.23;13.73;;;6.60;99.90;;;;;;5011360;28;20026;-73
2022/12/23 12:04:34;;;;;;;31.27;13.50;;;6.60;99.90;;;;;;5017453;28;20038;-74
2022/12/23 12:07:01;;;;;;;29.33;13.75;;;6.60;99.90;;;;;;5017142;28;20053;-70
2022/12/23 12:09:29;;;;;;;32.55;13.48;;;6.50;99.90;;;;;;5023545;28;20029;-70
2022/12/23 12:12:10;;;;;;;28.17;13.27;;;6.50;99.90;;;;;;5024533;28;20091;-71
2022/12/23 12:14:42;;;;;;;26.35;13.25;;;6.50;99.90;;;;;;5023560;28;20030;-74
2022/12/23 12:17:26;;;;;;;31.52;14.40;;;6.60;99.90;;;;;;5021447;28;20034;-75
2022/12/23 12:20:03;;;;;;;29.30;14.57;;;6.70;99.90;;;;;;5021837;28;20033;-75
2022/12/23 12:22:45;;;;;;;29.63;13.25;;;6.80;99.90;;;;;;5018982;28;20544;-75
2022/12/23 12:25:13;;;;;;;33.85;13.63;;;6.90;99.90;;;;;;5018189;28;20132;-75
2022/12/23 12:27:40;;;;;;;27.15;13.40;;;7.00;99.90;;;;;;5026578;28;20533;-75
2022/12/23 12:30:14;;;;;;;31.85;14.05;;;7.00;99.90;;;;;;5021501;28;20056;-75
2022/12/23 12:33:19;;;;;;;28.52;13.93;;;6.90;99.90;;;;;;5024266;28;20061;-75
2022/12/23 12:35:53;;;;;;;27.20;13.88;;;6.80;99.90;;;;;;5009788;28;20037;-75
2022/12/23 12:38:21;;;;;;;29.38;13.25;;;6.80;99.90;;;;;;5020756;28;20033;-74
2022/12/23 12:40:52;;;;;;;30.70;12.77;;;6.70;99.90;;;;;;5026080;28;20068;-73
2022/12/23 12:43:32;;;;;;;32.00;13.60;;;6.60;99.90;;;;;;5032892;28;20034;-74
2022/12/23 12:46:29;;;;;;;34.58;17.80;;;6.60;99.90;;;;;;5029457;28;20324;-72
2022/12/23 12:49:13;;;;;;;45.60;24.70;;;6.60;99.90;;;;;;5026709;28;20025;-72
2022/12/23 12:51:41;;;;;;;67.13;35.08;;;6.60;99.90;;;;;;5020532;28;20042;-69
2022/12/23 12:54:29;;;;;;;37.70;16.10;;;6.60;99.90;;;;;;5017609;28;20038;-71
2022/12/23 12:56:56;;;;;;;30.67;14.43;;;6.50;99.90;;;;;;5030537;28;20042;-69
2022/12/23 12:59:29;;;;;;;84.60;38.20;;;6.40;99.90;;;;;;5030584;28;20137;-69
2022/12/23 13:02:18;;;;;;;46.78;19.90;;;6.40;99.90;;;;;;5031910;28;20057;-70
2022/12/23 13:05:02;;;;;;;76.93;31.98;;;6.40;99.90;;;;;;5033537;28;23008;-70
2022/12/23 13:07:38;;;;;;;36.00;15.20;;;6.30;99.90;;;;;;5023374;28;20030;-71
2022/12/23 13:10:25;;;;;;;49.10;20.90;;;6.30;99.90;;;;;;5026358;28;20437;-69
2022/12/23 13:12:59;;;;;;;41.33;16.75;;;6.30;99.90;;;;;;5030885;28;20030;-70
2022/12/23 13:15:33;;;;;;;65.22;27.17;;;6.30;99.90;;;;;;5030695;28;20037;-73